Evansville, Indiana
Current Conditions -  °F | °C
As of 1:54 AM on Friday 31 Oct 2014 (Local Time) from KEVV Reporting Station
Light Rain Light Rain  
Wind Chill: 10°   Ceiling: 6000
Heat Index: 10°   Visibility: 10mi
Dew Point:   Wind: 6mph
Humidity: 77%   Direction: 40°NE
Pressure: 30.03"   Gusts: NA
Location:  37.98°N, 87.56°W
Report Text: KEVV 310654Z 04005KT 10SM -RA BKN060 OVC075 10/06 A3003 RMK AO2 RAB24 SLP169 P0000 T01000061
Loading
Personal Weather Stations






























Interactive Weather Map New forecast layout! Learn more

10-Day Weather Forecast

Advertisements
Track Severe Weather on mobile